createdAt,value
2019-05-21T00:03:44.304Z,5.80
2019-05-21T00:08:50.630Z,6.57
2019-05-21T00:14:04.253Z,5.28
2019-05-21T00:19:03.481Z,4.87
2019-05-21T00:24:11.855Z,5.10
2019-05-21T00:29:18.845Z,4.78
2019-05-21T00:34:25.175Z,4.87
2019-05-21T00:39:33.641Z,5.12
2019-05-21T00:44:50.318Z,4.90
2019-05-21T00:49:46.464Z,5.24
2019-05-21T00:54:52.622Z,5.30
2019-05-21T01:00:11.054Z,4.76
2019-05-21T01:05:11.490Z,5.73
2019-05-21T01:15:21.546Z,6.17
2019-05-21T01:20:17.623Z,6.00
2019-05-21T01:25:23.755Z,6.25
2019-05-21T01:30:29.927Z,6.22
2019-05-21T01:35:35.963Z,6.55
2019-05-21T01:40:42.208Z,6.15
2019-05-21T01:45:48.307Z,10.04
2019-05-21T01:50:54.426Z,8.89
2019-05-21T01:56:00.571Z,8.96
2019-05-21T02:01:06.659Z,8.77
2019-05-21T02:06:12.747Z,7.99
2019-05-21T02:11:18.854Z,8.41
2019-05-21T02:16:24.933Z,8.34
2019-05-21T02:21:31.111Z,8.37
2019-05-21T02:26:37.633Z,8.61
2019-05-21T02:31:43.775Z,8.12
2019-05-21T02:36:49.851Z,9.44
2019-05-21T02:41:56.218Z,9.34
2019-05-21T02:47:02.467Z,8.97
2019-05-21T02:52:09.413Z,9.40
2019-05-21T02:57:15.723Z,9.08
2019-05-21T03:02:22.285Z,9.16
2019-05-21T03:07:28.645Z,10.38
2019-05-21T03:12:35.076Z,9.63
2019-05-21T03:17:41.346Z,10.09
2019-05-21T03:22:47.758Z,10.25
2019-05-21T03:27:54.030Z,10.46
2019-05-21T03:33:00.596Z,10.77
2019-05-21T03:38:06.892Z,10.90
2019-05-21T03:43:13.186Z,11.67
2019-05-21T03:48:19.560Z,11.81
2019-05-21T03:53:25.863Z,11.68
2019-05-21T03:58:32.154Z,11.82
2019-05-21T04:03:39.042Z,12.37
2019-05-21T04:08:45.268Z,12.52
2019-05-21T04:13:52.218Z,12.54
2019-05-21T04:18:58.333Z,13.37
2019-05-21T04:24:08.475Z,12.91
2019-05-21T04:29:05.509Z,13.65
2019-05-21T04:34:11.773Z,14.37
2019-05-21T04:39:17.987Z,13.76
2019-05-21T04:44:25.715Z,13.64
2019-05-21T04:49:32.072Z,14.23
2019-05-21T04:54:38.462Z,14.06
2019-05-21T04:59:44.613Z,14.49
2019-05-21T05:04:50.853Z,15.25
2019-05-21T05:09:57.086Z,14.92
2019-05-21T05:15:03.332Z,15.15
2019-05-21T05:20:09.484Z,16.67
2019-05-21T05:25:16.139Z,15.89
2019-05-21T05:30:22.552Z,15.69
2019-05-21T05:35:28.852Z,16.15
2019-05-21T05:40:35.338Z,17.24
2019-05-21T05:45:41.996Z,16.54
2019-05-21T05:50:48.477Z,16.24
2019-05-21T05:55:55.168Z,16.64
2019-05-21T06:01:01.854Z,16.74
2019-05-21T06:06:08.502Z,16.77
2019-05-21T06:11:15.184Z,16.83
2019-05-21T06:16:22.077Z,17.30
2019-05-21T06:21:28.729Z,16.98
2019-05-21T06:26:35.176Z,17.54
2019-05-21T06:31:41.697Z,18.38
2019-05-21T06:36:48.082Z,18.29
2019-05-21T06:41:54.774Z,18.57
2019-05-21T06:47:01.652Z,19.43
2019-05-21T06:52:07.869Z,19.12
2019-05-21T06:57:14.325Z,20.81
2019-05-21T07:02:20.769Z,21.49
2019-05-21T07:07:27.363Z,21.63
2019-05-21T07:12:33.839Z,21.78
2019-05-21T07:17:40.066Z,23.00
2019-05-21T07:22:47.415Z,22.44
2019-05-21T07:27:53.831Z,23.62
2019-05-21T07:33:00.086Z,22.58
2019-05-21T07:38:06.265Z,23.42
2019-05-21T07:43:12.730Z,21.28
2019-05-21T07:48:19.323Z,21.35
2019-05-21T07:53:25.769Z,22.09
2019-05-21T07:58:32.395Z,20.46
2019-05-21T08:03:38.577Z,20.94
2019-05-21T08:08:45.013Z,20.34
2019-05-21T08:13:51.505Z,20.53
2019-05-21T08:18:58.418Z,19.75
2019-05-21T08:24:04.868Z,20.42
2019-05-21T08:29:11.677Z,20.44
2019-05-21T08:34:19.608Z,19.73
2019-05-21T08:39:28.613Z,19.10
2019-05-21T08:44:36.184Z,18.31
2019-05-21T08:49:44.278Z,18.15
2019-05-21T08:54:50.859Z,19.07
2019-05-21T08:59:57.455Z,18.71
2019-05-21T09:05:03.873Z,19.77
2019-05-21T09:10:10.455Z,20.22
2019-05-21T09:15:18.520Z,20.14
2019-05-21T09:20:25.917Z,21.82
2019-05-21T09:25:32.299Z,20.13
2019-05-21T09:30:38.900Z,19.02
2019-05-21T09:35:45.088Z,19.06
2019-05-21T09:40:51.319Z,19.56
2019-05-21T09:45:57.950Z,18.72
2019-05-21T09:51:04.777Z,18.34
2019-05-21T09:56:11.219Z,18.30
2019-05-21T10:01:17.766Z,18.51
2019-05-21T10:06:24.016Z,17.97
2019-05-21T10:11:31.856Z,17.61
2019-05-21T10:16:39.896Z,18.26
2019-05-21T10:21:46.161Z,19.54
2019-05-21T10:26:52.858Z,18.53
2019-05-21T10:31:59.342Z,22.31
2019-05-21T10:37:06.041Z,20.71
2019-05-21T10:42:12.656Z,19.07
2019-05-21T10:47:21.742Z,18.32
2019-05-21T10:52:28.400Z,18.64
2019-05-21T10:58:01.861Z,18.10
2019-05-21T11:02:38.672Z,18.76
2019-05-21T11:07:44.790Z,18.20
2019-05-21T11:12:51.195Z,18.22
2019-05-21T11:18:09.860Z,18.79
2019-05-21T11:23:04.515Z,18.08
2019-05-21T11:28:10.980Z,18.35
2019-05-21T11:33:17.629Z,17.87
2019-05-21T11:38:39.141Z,18.27
2019-05-21T11:43:32.808Z,18.97
2019-05-21T11:48:39.276Z,18.89
2019-05-21T11:53:55.929Z,18.06
2019-05-21T11:59:04.844Z,18.20
2019-05-21T12:04:01.296Z,18.77
2019-05-21T12:09:07.935Z,23.08
2019-05-21T12:14:14.136Z,19.77
2019-05-21T12:19:21.240Z,18.41
2019-05-21T12:24:27.862Z,18.97
2019-05-21T12:29:34.724Z,20.30
2019-05-21T12:34:41.084Z,22.41
2019-05-21T12:39:47.410Z,23.80
2019-05-21T12:44:53.812Z,23.93
2019-05-21T12:50:00.552Z,24.84
2019-05-21T12:55:07.124Z,24.95
2019-05-21T13:00:13.667Z,25.15
2019-05-21T13:05:20.051Z,25.33
2019-05-21T13:10:27.159Z,25.81
2019-05-21T13:15:33.643Z,25.56
2019-05-21T13:20:40.185Z,27.04
2019-05-21T13:25:46.578Z,23.54
2019-05-21T13:30:54.518Z,22.17
2019-05-21T13:36:01.446Z,20.90
2019-05-21T13:41:07.934Z,20.01
2019-05-21T13:46:14.643Z,19.79
2019-05-21T13:51:21.485Z,21.65
2019-05-21T13:56:27.857Z,22.32
2019-05-21T14:01:40.947Z,23.06
2019-05-21T14:06:38.105Z,21.75
2019-05-21T14:11:44.397Z,20.74
2019-05-21T14:16:50.946Z,20.46
2019-05-21T14:21:57.591Z,21.02
2019-05-21T14:27:03.846Z,22.52
2019-05-21T14:32:10.597Z,22.21
2019-05-21T14:37:17.138Z,22.79
2019-05-21T14:42:27.159Z,21.08
2019-05-21T14:47:49.422Z,21.95
2019-05-21T14:52:38.417Z,21.70
2019-05-21T14:57:45.212Z,20.84
2019-05-21T15:02:51.605Z,20.01
2019-05-21T15:07:58.682Z,21.49
2019-05-21T15:13:07.032Z,21.14
2019-05-21T15:18:20.729Z,21.19
2019-05-21T15:23:26.778Z,21.48
2019-05-21T15:28:23.263Z,22.38
2019-05-21T15:33:30.216Z,20.95
2019-05-21T15:38:49.538Z,21.66
2019-05-21T15:43:42.939Z,18.05
2019-05-21T15:48:52.027Z,15.53
2019-05-21T15:53:58.422Z,13.61
2019-05-21T15:59:05.063Z,14.52
2019-05-21T16:04:11.269Z,9.75
2019-05-21T16:09:17.651Z,10.73
2019-05-21T16:14:24.253Z,11.39
2019-05-21T16:19:32.750Z,10.06
2019-05-21T16:24:38.928Z,11.61
2019-05-21T16:29:45.181Z,10.59
2019-05-21T16:34:51.599Z,10.98
2019-05-21T16:40:01.192Z,10.45
2019-05-21T16:45:10.139Z,10.08
2019-05-21T16:50:06.822Z,10.42
2019-05-21T16:55:13.484Z,10.65
2019-05-21T17:00:19.962Z,12.09
2019-05-21T17:05:26.362Z,12.91
2019-05-21T17:10:33.061Z,12.91
2019-05-21T17:15:39.561Z,13.09
2019-05-21T17:20:46.822Z,13.11
2019-05-21T17:25:53.202Z,13.98
2019-05-21T17:31:02.178Z,14.59
2019-05-21T17:36:21.319Z,13.03
2019-05-21T17:41:18.891Z,13.32
2019-05-21T17:46:28.916Z,12.47
2019-05-21T17:51:26.992Z,13.64
2019-05-21T18:01:53.621Z,14.49
2019-05-21T18:06:56.292Z,15.49
2019-05-21T18:12:10.389Z,13.72
2019-05-21T18:16:56.999Z,15.84
2019-05-21T18:22:05.488Z,16.18
2019-05-21T18:27:28.122Z,15.25
2019-05-21T18:32:40.872Z,14.08
2019-05-21T18:42:22.567Z,14.86
2019-05-21T18:47:30.121Z,15.15
2019-05-21T18:52:36.517Z,15.02
2019-05-21T18:57:42.755Z,16.94
2019-05-21T19:02:49.132Z,14.56
2019-05-21T19:07:55.472Z,16.09
2019-05-21T19:13:02.727Z,14.47
2019-05-21T19:18:09.053Z,14.16
2019-05-21T19:23:15.300Z,13.89
2019-05-21T19:28:21.706Z,14.72
2019-05-21T19:33:28.145Z,13.87
2019-05-21T19:38:37.183Z,12.41
2019-05-21T19:43:43.783Z,12.30
2019-05-21T19:48:50.738Z,13.55
2019-05-21T19:53:57.334Z,13.72
2019-05-21T19:59:03.777Z,13.62
2019-05-21T20:04:10.127Z,13.03
2019-05-21T20:09:19.985Z,12.15
2019-05-21T20:14:28.703Z,11.75
2019-05-21T20:19:34.996Z,12.15
2019-05-21T20:24:41.294Z,12.74
2019-05-21T20:29:47.597Z,14.02
2019-05-21T20:40:01.345Z,14.53
2019-05-21T20:45:07.627Z,16.46
2019-05-21T20:55:20.217Z,12.90
2019-05-21T21:00:26.926Z,15.56
2019-05-21T21:05:33.233Z,14.38
2019-05-21T21:15:42.728Z,14.50
2019-05-21T21:25:56.609Z,14.93
2019-05-21T21:31:04.528Z,12.24
2019-05-21T21:41:16.587Z,12.84
2019-05-21T21:46:33.420Z,13.76
2019-05-21T22:01:36.326Z,10.48
2019-05-21T22:21:48.376Z,12.70
2019-05-21T23:02:50.838Z,14.65
2019-05-21T23:38:35.700Z,15.63
2019-05-21T23:43:41.896Z,14.60
2019-05-21T23:48:47.983Z,14.14
2019-05-21T23:53:54.133Z,13.85
